Time;durP1;ratioP1;P1;durP2;ratioP2;P2;SDS_P1;SDS_P2;PMS_P1;PMS_P2;Temp;Humidity;BMP_temperature;BMP_pressure;BME280_temperature;BME280_humidity;BME280_pressure;Samples;Min_cycle;Max_cycle;Signal;HPM_P1;HPM_P2
2022/03/20 00:01:49;;;;;;;22.03;16.53;;;7.20;48.20;;;;;;5007212;28;20470;-71
2022/03/20 00:04:34;;;;;;;23.97;15.73;;;7.20;49.80;;;;;;5006382;28;20467;-71
2022/03/20 00:07:21;;;;;;;21.83;15.97;;;7.10;49.30;;;;;;5013201;28;20421;-71
2022/03/20 00:10:09;;;;;;;25.43;16.17;;;7.00;49.70;;;;;;5009517;28;20980;-71
2022/03/20 00:12:55;;;;;;;24.13;16.77;;;7.00;49.90;;;;;;5012011;28;20789;-71
2022/03/20 00:15:41;;;;;;;23.23;16.37;;;7.00;50.30;;;;;;5013548;28;20444;-70
2022/03/20 00:18:27;;;;;;;23.23;16.27;;;6.90;49.80;;;;;;5013060;28;20436;-70
2022/03/20 00:21:13;;;;;;;21.60;15.87;;;6.90;50.70;;;;;;5006943;28;21054;-71
2022/03/20 00:24:01;;;;;;;24.80;17.07;;;6.90;51.00;;;;;;5011470;28;20482;-71
2022/03/20 00:26:46;;;;;;;25.07;15.97;;;6.80;50.90;;;;;;5015317;28;20978;-71
2022/03/20 00:29:32;;;;;;;26.87;17.27;;;6.80;51.20;;;;;;5013398;28;20455;-71
2022/03/20 00:32:20;;;;;;;20.40;15.60;;;6.80;50.60;;;;;;5006732;28;20427;-71
2022/03/20 00:35:06;;;;;;;25.50;17.07;;;6.80;50.10;;;;;;5017501;22;20545;-85
2022/03/20 00:37:51;;;;;;;19.70;14.87;;;6.80;50.20;;;;;;5003146;28;20571;-84
2022/03/20 00:40:39;;;;;;;24.10;15.57;;;6.70;50.70;;;;;;5001107;28;20474;-83
2022/03/20 00:43:24;;;;;;;25.30;16.90;;;6.50;53.50;;;;;;5000609;28;20444;-85
2022/03/20 00:46:10;;;;;;;23.80;16.20;;;6.60;51.20;;;;;;5002883;28;20463;-84
2022/03/20 00:48:56;;;;;;;24.53;15.63;;;6.70;50.80;;;;;;5002038;28;20970;-82
2022/03/20 00:51:42;;;;;;;27.77;17.80;;;6.50;50.40;;;;;;5003749;28;20464;-84
2022/03/20 00:54:28;;;;;;;28.33;17.13;;;6.60;51.00;;;;;;5003058;28;20541;-85
2022/03/20 00:57:15;;;;;;;24.63;16.50;;;6.50;51.50;;;;;;5007586;28;20512;-86
2022/03/20 01:00:01;;;;;;;27.13;16.00;;;6.50;51.50;;;;;;4997896;28;20982;-85
2022/03/20 01:02:48;;;;;;;28.13;17.33;;;6.50;51.30;;;;;;5005769;28;20467;-86
2022/03/20 01:05:34;;;;;;;20.50;15.17;;;6.50;51.80;;;;;;5012283;28;20446;-84
2022/03/20 01:08:19;;;;;;;25.47;16.63;;;6.50;52.70;;;;;;5007420;28;20599;-83
2022/03/20 01:11:06;;;;;;;24.40;16.80;;;6.10;53.20;;;;;;4998557;28;20470;-85
2022/03/20 01:13:55;;;;;;;23.10;14.90;;;6.10;56.50;;;;;;5003732;28;20431;-85
2022/03/20 01:16:40;;;;;;;24.23;16.50;;;6.20;54.00;;;;;;5003975;28;20479;-86
2022/03/20 01:19:27;;;;;;;24.07;16.73;;;6.30;51.70;;;;;;4997736;28;20479;-84
2022/03/20 01:22:13;;;;;;;33.10;17.67;;;6.40;52.10;;;;;;5002740;28;20547;-85
2022/03/20 01:24:58;;;;;;;28.27;17.40;;;6.50;49.70;;;;;;5003112;28;20467;-85
2022/03/20 01:27:44;;;;;;;24.47;16.40;;;6.60;48.90;;;;;;5008289;28;20505;-85
2022/03/20 01:30:31;;;;;;;24.20;16.57;;;6.70;48.10;;;;;;4999446;28;20446;-86
2022/03/20 01:33:18;;;;;;;27.73;18.47;;;6.70;46.00;;;;;;5006885;28;20472;-84
2022/03/20 01:36:04;;;;;;;25.67;17.20;;;6.80;45.60;;;;;;5007439;28;20934;-85
2022/03/20 01:38:50;;;;;;;26.43;16.53;;;6.80;46.30;;;;;;5000990;28;20443;-84
2022/03/20 01:41:35;;;;;;;23.57;15.90;;;6.80;46.00;;;;;;4998975;28;20472;-83
2022/03/20 01:44:29;;;;;;;24.17;16.87;;;6.90;45.50;;;;;;4991510;28;20492;-84
2022/03/20 01:47:16;;;;;;;24.83;16.40;;;6.80;45.80;;;;;;5003824;28;20468;-86
2022/03/20 01:50:02;;;;;;;26.93;18.10;;;7.00;45.00;;;;;;4995033;28;20601;-84
2022/03/20 01:52:50;;;;;;;25.60;17.30;;;6.90;44.30;;;;;;4998769;28;20524;-84
2022/03/20 01:55:35;;;;;;;25.47;16.77;;;6.90;44.90;;;;;;5011895;28;20417;-83
2022/03/20 01:58:21;;;;;;;23.17;16.07;;;6.90;43.70;;;;;;4998974;28;20434;-85
2022/03/20 02:01:07;;;;;;;26.87;18.27;;;7.00;43.80;;;;;;4999603;28;20479;-85
2022/03/20 02:03:54;;;;;;;25.80;16.17;;;6.90;43.10;;;;;;5004951;28;20438;-85
2022/03/20 02:06:41;;;;;;;29.40;17.63;;;6.90;43.90;;;;;;5003452;28;20452;-83
2022/03/20 02:09:27;;;;;;;25.50;18.50;;;6.90;43.60;;;;;;4998591;28;20496;-83
2022/03/20 02:12:12;;;;;;;25.87;17.17;;;6.90;43.00;;;;;;4997070;28;20436;-85
2022/03/20 02:15:00;;;;;;;25.70;17.00;;;7.00;42.20;;;;;;4996836;28;20457;-84
2022/03/20 02:17:46;;;;;;;32.33;16.60;;;7.00;42.80;;;;;;5002319;28;20425;-85
2022/03/20 02:20:34;;;;;;;26.50;17.40;;;7.00;44.20;;;;;;5002459;28;20526;-84
2022/03/20 02:23:22;;;;;;;27.83;18.07;;;6.90;45.30;;;;;;5004257;28;20428;-86
2022/03/20 02:26:07;;;;;;;25.87;17.30;;;6.90;45.30;;;;;;5004580;28;20489;-84
2022/03/20 02:28:53;;;;;;;23.87;17.00;;;6.70;44.80;;;;;;4994835;28;20422;-85
2022/03/20 02:31:39;;;;;;;25.30;17.10;;;6.80;44.00;;;;;;5033454;22;20507;-73
2022/03/20 02:34:24;;;;;;;24.47;15.60;;;6.70;44.70;;;;;;5025134;28;20447;-72
2022/03/20 02:37:10;;;;;;;27.30;16.90;;;6.60;45.30;;;;;;5027123;28;20472;-72
2022/03/20 02:40:00;;;;;;;28.10;18.17;;;6.40;45.70;;;;;;5025144;28;20450;-73
2022/03/20 02:42:48;;;;;;;27.20;17.33;;;6.50;45.40;;;;;;5027502;28;20460;-73
2022/03/20 02:45:34;;;;;;;24.33;18.00;;;6.60;45.50;;;;;;5027168;28;20487;-72
2022/03/20 02:48:20;;;;;;;29.90;18.60;;;6.60;46.00;;;;;;5022429;28;21279;-73
2022/03/20 02:51:06;;;;;;;29.33;18.20;;;6.50;44.60;;;;;;5021258;28;20777;-73
2022/03/20 02:53:53;;;;;;;27.63;17.50;;;6.50;45.70;;;;;;5027073;28;20493;-73
2022/03/20 02:56:40;;;;;;;25.40;17.27;;;6.60;45.40;;;;;;5021336;28;20474;-73
2022/03/20 02:59:26;;;;;;;30.43;17.97;;;6.60;46.10;;;;;;5020280;28;20450;-73
2022/03/20 03:02:13;;;;;;;25.90;17.00;;;6.60;46.80;;;;;;5022966;28;20439;-72
2022/03/20 03:04:59;;;;;;;28.77;18.27;;;6.50;47.00;;;;;;5020867;28;20446;-72
2022/03/20 03:10:59;;;;;;;28.57;19.00;;;6.40;47.30;;;;;;5019420;28;20504;-72
2022/03/20 03:13:47;;;;;;;27.67;17.57;;;6.40;45.60;;;;;;5024234;28;21058;-72
2022/03/20 03:16:33;;;;;;;30.20;19.03;;;6.50;46.50;;;;;;5020602;28;20444;-71
2022/03/20 03:19:18;;;;;;;31.53;18.77;;;6.50;46.50;;;;;;5027443;28;20427;-73
2022/03/20 03:22:04;;;;;;;25.33;17.47;;;6.40;46.90;;;;;;5018374;28;20493;-72
2022/03/20 03:24:50;;;;;;;28.90;17.70;;;6.40;47.40;;;;;;5024454;28;20559;-73
2022/03/20 03:27:36;;;;;;;28.90;18.30;;;6.40;48.50;;;;;;5023534;28;20448;-72
2022/03/20 03:30:25;;;;;;;28.30;17.93;;;6.20;49.00;;;;;;5022019;28;20437;-73
2022/03/20 03:33:12;;;;;;;32.70;18.97;;;6.10;51.70;;;;;;5025658;28;21021;-73
2022/03/20 03:35:57;;;;;;;37.37;20.60;;;6.00;52.70;;;;;;5016990;28;20445;-73
2022/03/20 03:38:43;;;;;;;30.90;20.57;;;5.90;52.50;;;;;;5021422;28;20517;-72
2022/03/20 03:41:28;;;;;;;29.27;19.57;;;5.80;50.80;;;;;;5028265;28;20516;-72
2022/03/20 03:44:14;;;;;;;35.07;18.80;;;5.90;51.00;;;;;;5025702;28;20442;-72
2022/03/20 03:47:01;;;;;;;28.07;20.03;;;6.00;51.30;;;;;;5023461;28;20520;-73
2022/03/20 03:49:48;;;;;;;27.17;18.30;;;6.10;50.60;;;;;;5026797;28;20435;-72
2022/03/20 03:52:33;;;;;;;33.30;20.00;;;6.10;48.50;;;;;;5024265;28;20548;-72
2022/03/20 03:55:19;;;;;;;33.30;21.53;;;6.30;48.10;;;;;;5026831;28;20466;-72
2022/03/20 03:58:06;;;;;;;33.93;20.07;;;6.40;47.60;;;;;;5023660;28;20487;-72
2022/03/20 04:00:51;;;;;;;30.30;19.17;;;6.60;47.60;;;;;;5024650;28;20988;-73
2022/03/20 04:03:39;;;;;;;29.50;20.33;;;6.60;48.20;;;;;;5027643;28;20428;-72
2022/03/20 04:06:24;;;;;;;28.40;18.67;;;6.50;48.60;;;;;;5019799;28;20557;-72
2022/03/20 04:09:10;;;;;;;31.73;20.87;;;6.50;50.10;;;;;;5025081;28;20448;-73
2022/03/20 04:11:56;;;;;;;34.30;21.37;;;6.40;51.40;;;;;;5024915;28;20450;-72
2022/03/20 04:14:41;;;;;;;29.90;21.17;;;6.50;49.70;;;;;;5024540;28;20429;-73
2022/03/20 04:17:28;;;;;;;37.47;21.30;;;6.50;48.00;;;;;;5026211;28;20763;-74
2022/03/20 04:20:14;;;;;;;42.20;22.80;;;6.50;48.70;;;;;;5025276;28;20907;-73
2022/03/20 04:26:03;;;;;;;27.90;19.23;;;6.50;50.40;;;;;;5027094;28;21018;-73
2022/03/20 04:28:50;;;;;;;28.40;20.17;;;6.50;51.30;;;;;;5024632;28;20966;-73
2022/03/20 04:31:37;;;;;;;29.13;20.13;;;6.30;52.10;;;;;;5026639;28;20812;-73
2022/03/20 04:34:23;;;;;;;33.23;19.50;;;6.10;52.20;;;;;;5021559;28;20415;-73
2022/03/20 04:37:12;;;;;;;29.17;17.97;;;6.10;53.50;;;;;;5025020;28;21087;-73
2022/03/20 04:39:57;;;;;;;29.33;19.67;;;5.80;53.40;;;;;;5027720;28;20507;-73
2022/03/20 04:42:43;;;;;;;29.37;19.63;;;5.80;56.80;;;;;;5025954;28;20512;-73
2022/03/20 04:45:29;;;;;;;33.93;21.50;;;5.90;58.10;;;;;;5027815;28;20572;-72
2022/03/20 05:00:37;;;;;;;29.97;20.87;;;5.80;54.80;;;;;;4994295;28;21213;-73
2022/03/20 05:03:22;;;;;;;34.23;22.90;;;6.10;54.70;;;;;;5027423;28;20460;-72
2022/03/20 05:06:08;;;;;;;34.77;22.90;;;6.10;55.30;;;;;;5023923;28;20496;-72
2022/03/20 05:13:19;;;;;;;37.13;21.10;;;6.20;57.90;;;;;;5029682;28;20420;-72
2022/03/20 05:15:05;;;;;;;29.87;19.90;;;6.20;54.70;;;;;;5023768;28;20824;-72
2022/03/20 05:17:51;;;;;;;36.83;23.50;;;6.30;53.80;;;;;;5032056;28;20428;-73
2022/03/20 05:20:37;;;;;;;33.27;21.03;;;6.40;53.40;;;;;;5025734;28;20760;-73
2022/03/20 05:23:23;;;;;;;35.63;22.83;;;6.40;53.40;;;;;;5037836;28;20468;-73
2022/03/20 05:26:08;;;;;;;36.23;22.10;;;6.40;53.40;;;;;;5030128;28;20836;-73
2022/03/20 05:28:55;;;;;;;31.83;21.50;;;6.60;53.60;;;;;;5034215;28;20429;-73
2022/03/20 05:31:41;;;;;;;30.83;21.03;;;6.60;54.50;;;;;;5035507;28;20414;-73
2022/03/20 05:34:27;;;;;;;33.33;21.90;;;6.70;54.10;;;;;;5025862;28;20400;-73
2022/03/20 05:37:13;;;;;;;38.10;23.17;;;6.80;53.60;;;;;;5030344;28;20519;-73
2022/03/20 05:40:00;;;;;;;32.77;22.40;;;6.90;53.00;;;;;;5027934;28;20436;-73
2022/03/20 05:42:45;;;;;;;33.37;21.57;;;6.80;52.50;;;;;;5025475;28;20995;-73
2022/03/20 05:45:34;;;;;;;32.13;23.30;;;6.90;53.20;;;;;;5024572;28;20448;-73
2022/03/20 05:48:19;;;;;;;37.13;23.97;;;6.90;53.20;;;;;;5028594;28;20546;-73
2022/03/20 05:51:05;;;;;;;33.40;23.17;;;7.00;51.80;;;;;;5024704;28;20451;-73
2022/03/20 05:53:51;;;;;;;36.07;21.23;;;7.10;50.90;;;;;;5024176;28;20410;-73
2022/03/20 05:59:40;;;;;;;39.13;23.37;;;7.00;50.50;;;;;;5026385;28;20986;-73
2022/03/20 06:02:27;;;;;;;35.33;23.60;;;7.00;51.70;;;;;;5025354;28;20672;-73
2022/03/20 06:05:13;;;;;;;37.93;22.17;;;7.00;51.60;;;;;;5022799;28;20435;-72
2022/03/20 06:07:59;;;;;;;36.70;23.80;;;6.90;52.70;;;;;;5027819;28;20448;-73
2022/03/20 06:10:47;;;;;;;36.00;24.33;;;6.90;53.90;;;;;;5025771;28;20488;-73
2022/03/20 06:13:38;;;;;;;42.13;22.80;;;6.90;53.60;;;;;;5025716;28;20461;-73
2022/03/20 06:16:23;;;;;;;34.37;23.07;;;7.00;52.60;;;;;;5022397;28;20447;-72
2022/03/20 06:19:10;;;;;;;36.93;24.33;;;7.00;52.90;;;;;;5025867;28;20431;-73
2022/03/20 06:21:56;;;;;;;35.77;23.17;;;7.00;54.00;;;;;;5023870;28;20528;-73
2022/03/20 06:24:42;;;;;;;35.10;23.30;;;7.10;54.10;;;;;;5024176;28;20646;-72
2022/03/20 06:27:28;;;;;;;37.33;23.20;;;7.10;54.90;;;;;;5026516;28;20443;-72
2022/03/20 06:30:14;;;;;;;35.20;22.00;;;7.10;54.90;;;;;;5024054;28;20457;-73
2022/03/20 06:33:02;;;;;;;37.67;22.47;;;7.10;54.10;;;;;;5025045;28;20426;-72
2022/03/20 06:35:48;;;;;;;35.83;24.17;;;7.20;53.60;;;;;;5021491;28;20441;-73
2022/03/20 06:38:35;;;;;;;36.23;21.60;;;7.30;52.70;;;;;;5030606;28;20515;-72
2022/03/20 06:41:21;;;;;;;32.40;21.10;;;7.40;54.40;;;;;;5026457;28;20990;-73
2022/03/20 06:44:07;;;;;;;37.17;23.23;;;7.40;55.00;;;;;;5024209;28;20804;-72
2022/03/20 06:46:54;;;;;;;33.10;24.03;;;7.40;55.00;;;;;;5026544;28;20602;-72
2022/03/20 06:49:40;;;;;;;31.50;21.10;;;7.50;55.30;;;;;;5026634;28;20450;-73
2022/03/20 06:52:29;;;;;;;29.73;21.60;;;7.50;57.70;;;;;;5023847;28;20455;-73
2022/03/20 06:55:16;;;;;;;38.47;24.10;;;7.50;57.80;;;;;;5020819;28;20815;-73
2022/03/20 06:58:01;;;;;;;37.90;24.40;;;7.40;56.40;;;;;;5023949;28;20443;-72
2022/03/20 07:00:47;;;;;;;38.17;24.27;;;7.50;55.90;;;;;;5023539;28;20446;-72
2022/03/20 07:03:33;;;;;;;37.03;24.77;;;7.60;55.60;;;;;;5024365;28;20520;-72
2022/03/20 07:06:18;;;;;;;35.80;22.40;;;7.60;55.10;;;;;;5021947;28;20447;-73
2022/03/20 07:09:05;;;;;;;36.50;22.70;;;7.70;54.70;;;;;;5020151;28;20560;-73
2022/03/20 07:11:51;;;;;;;36.53;23.67;;;7.80;56.50;;;;;;5025649;28;20458;-73
2022/03/20 07:14:37;;;;;;;41.87;24.30;;;7.90;55.10;;;;;;5025048;28;20447;-73
2022/03/20 07:17:24;;;;;;;35.73;23.73;;;8.00;55.00;;;;;;5029281;28;20481;-73
2022/03/20 07:20:10;;;;;;;32.97;23.20;;;8.00;55.00;;;;;;5020957;28;20402;-73
2022/03/20 07:22:56;;;;;;;36.70;23.47;;;8.10;55.10;;;;;;5030647;28;20452;-73
2022/03/20 07:31:52;;;;;;;36.30;22.93;;;8.30;52.80;;;;;;5023143;28;20436;-73
2022/03/20 07:34:39;;;;;;;34.20;23.80;;;8.40;53.50;;;;;;5025888;22;20654;-70
2022/03/20 07:37:26;;;;;;;32.80;23.03;;;8.50;51.80;;;;;;4990657;28;20416;-71
2022/03/20 07:40:12;;;;;;;38.97;24.43;;;8.60;53.30;;;;;;4997324;28;21040;-70
2022/03/20 07:42:59;;;;;;;33.10;23.23;;;8.80;52.20;;;;;;4991390;28;21287;-71
2022/03/20 07:45:45;;;;;;;38.03;24.53;;;8.90;52.00;;;;;;4968901;28;20512;-70
2022/03/20 07:48:31;;;;;;;36.57;23.77;;;9.00;49.90;;;;;;4977963;28;20593;-71
2022/03/20 07:51:17;;;;;;;36.03;24.40;;;9.10;50.50;;;;;;4970793;28;20462;-71
2022/03/20 07:54:02;;;;;;;36.10;24.93;;;9.30;50.40;;;;;;4967258;28;20828;-71
2022/03/20 07:56:48;;;;;;;38.33;24.87;;;9.40;50.80;;;;;;4966040;28;20831;-70
2022/03/20 07:59:36;;;;;;;35.57;23.70;;;9.50;49.60;;;;;;4969117;28;20450;-70
2022/03/20 08:02:23;;;;;;;35.93;24.80;;;9.60;49.40;;;;;;4966573;28;20422;-70
2022/03/20 08:05:09;;;;;;;36.33;24.80;;;9.70;49.40;;;;;;4964708;28;20452;-71
2022/03/20 08:07:56;;;;;;;39.20;24.57;;;9.80;47.30;;;;;;4969385;28;20440;-71
2022/03/20 08:10:42;;;;;;;39.43;25.87;;;9.90;46.90;;;;;;4967502;28;20575;-70
2022/03/20 08:13:31;;;;;;;36.87;24.90;;;10.00;46.30;;;;;;4970128;28;20555;-70
2022/03/20 08:16:21;;;;;;;38.30;23.30;;;10.20;47.90;;;;;;4979860;28;20424;-71
2022/03/20 08:19:09;;;;;;;35.40;23.37;;;10.30;46.80;;;;;;4976913;28;20467;-71
2022/03/20 08:21:55;;;;;;;31.13;22.57;;;10.40;46.40;;;;;;4971502;28;20435;-70
2022/03/20 08:24:41;;;;;;;36.07;23.77;;;10.40;45.50;;;;;;4966008;28;20585;-70
2022/03/20 08:27:27;;;;;;;30.70;22.97;;;10.50;46.00;;;;;;4976842;28;20444;-70
2022/03/20 08:30:15;;;;;;;39.77;24.90;;;10.50;44.90;;;;;;4972811;28;20448;-71
2022/03/20 08:33:02;;;;;;;33.97;23.73;;;10.50;46.20;;;;;;4977828;28;20488;-71
2022/03/20 08:35:48;;;;;;;43.37;24.70;;;10.50;46.00;;;;;;4969578;28;20481;-70
2022/03/20 08:38:34;;;;;;;34.60;24.10;;;10.50;48.00;;;;;;4967162;28;20422;-71
2022/03/20 08:41:20;;;;;;;33.27;23.63;;;10.60;46.60;;;;;;4976640;28;20423;-70
2022/03/20 08:44:08;;;;;;;32.87;23.50;;;10.70;46.50;;;;;;4966834;28;20566;-70
2022/03/20 08:46:53;;;;;;;35.90;24.90;;;10.90;47.40;;;;;;4976230;28;20435;-70
2022/03/20 08:49:40;;;;;;;32.53;24.20;;;11.00;43.70;;;;;;4979815;28;20416;-71
2022/03/20 08:52:26;;;;;;;35.63;24.10;;;11.00;45.00;;;;;;4977004;28;20934;-71
2022/03/20 08:55:12;;;;;;;42.60;24.77;;;11.00;46.00;;;;;;4977362;28;20446;-70
2022/03/20 08:57:58;;;;;;;33.53;24.07;;;11.10;45.60;;;;;;4971627;28;20459;-71
2022/03/20 09:00:45;;;;;;;40.07;25.13;;;11.20;46.30;;;;;;4978505;28;20514;-70
2022/03/20 09:03:30;;;;;;;33.30;23.63;;;11.30;46.00;;;;;;4968196;28;20463;-71
2022/03/20 09:06:18;;;;;;;35.63;23.90;;;11.40;47.40;;;;;;4979239;28;20409;-70
2022/03/20 09:09:03;;;;;;;38.63;24.67;;;11.40;48.00;;;;;;4983333;28;20519;-71
2022/03/20 09:11:49;;;;;;;30.97;22.60;;;11.50;48.50;;;;;;4976270;28;20467;-70
2022/03/20 09:14:35;;;;;;;37.37;23.07;;;11.60;49.80;;;;;;4969228;28;21071;-70
2022/03/20 09:20:24;;;;;;;28.20;20.60;;;11.70;49.30;;;;;;4978900;28;20446;-70
2022/03/20 09:23:13;;;;;;;31.47;21.67;;;11.70;49.10;;;;;;4972380;28;20464;-70
2022/03/20 09:25:59;;;;;;;31.10;22.53;;;11.60;50.60;;;;;;4970876;28;20463;-70
2022/03/20 09:28:45;;;;;;;28.50;21.80;;;11.60;51.60;;;;;;4974797;28;20510;-70
2022/03/20 09:31:31;;;;;;;38.70;22.60;;;11.50;52.00;;;;;;4976547;28;20559;-71
2022/03/20 09:34:17;;;;;;;35.37;20.80;;;11.50;52.70;;;;;;4974624;28;20823;-71
2022/03/20 09:37:03;;;;;;;30.20;21.40;;;11.70;52.90;;;;;;4964552;28;20433;-70
2022/03/20 09:39:50;;;;;;;35.97;21.63;;;11.80;53.60;;;;;;4963372;28;20431;-70
2022/03/20 09:42:36;;;;;;;35.30;21.77;;;11.80;53.10;;;;;;4968259;28;20449;-70
2022/03/20 09:45:22;;;;;;;31.60;21.40;;;11.80;51.90;;;;;;4970356;28;20538;-70
2022/03/20 09:48:09;;;;;;;36.00;23.80;;;11.80;52.60;;;;;;4976130;28;20413;-70
2022/03/20 09:50:55;;;;;;;33.67;22.40;;;11.80;53.20;;;;;;4973755;28;20430;-70
2022/03/20 09:53:40;;;;;;;32.50;21.77;;;11.90;52.30;;;;;;4966854;28;20486;-70
2022/03/20 09:56:28;;;;;;;36.10;24.00;;;11.90;52.90;;;;;;4966462;28;20433;-70
2022/03/20 09:59:13;;;;;;;32.47;22.47;;;11.90;52.80;;;;;;4973794;28;20794;-70
2022/03/20 10:02:03;;;;;;;34.87;22.47;;;12.00;52.30;;;;;;4972958;28;20654;-70
2022/03/20 10:04:53;;;;;;;37.57;24.20;;;12.00;50.00;;;;;;4970123;28;20454;-70
2022/03/20 10:07:43;;;;;;;32.43;23.10;;;12.10;50.90;;;;;;4969133;28;20486;-70
2022/03/20 10:10:29;;;;;;;35.77;22.83;;;12.10;50.80;;;;;;4970484;28;20421;-70
2022/03/20 10:13:16;;;;;;;33.20;22.07;;;12.20;49.80;;;;;;4970972;28;20425;-71
2022/03/20 10:16:17;;;;;;;35.50;24.97;;;12.30;48.40;;;;;;4972893;28;20558;-70
2022/03/20 10:19:23;;;;;;;37.53;25.97;;;12.50;48.10;;;;;;4971181;28;20813;-70
2022/03/20 10:22:10;;;;;;;35.47;23.93;;;12.60;47.40;;;;;;4970738;28;20500;-70
2022/03/20 10:24:56;;;;;;;37.50;23.50;;;12.80;47.50;;;;;;4971717;28;20627;-71
2022/03/20 10:27:57;;;;;;;37.73;22.60;;;13.20;47.20;;;;;;4969193;28;20563;-70
2022/03/20 10:30:56;;;;;;;35.80;24.17;;;13.60;45.30;;;;;;4972870;28;20450;-71
2022/03/20 10:33:43;;;;;;;30.60;22.53;;;13.80;42.00;;;;;;4967151;28;20440;-70
2022/03/20 10:36:29;;;;;;;34.30;24.37;;;13.90;41.50;;;;;;4974160;28;20452;-71
2022/03/20 10:39:17;;;;;;;34.30;24.23;;;13.90;41.50;;;;;;4970159;28;20425;-71
2022/03/20 10:42:03;;;;;;;38.27;23.20;;;14.10;40.60;;;;;;4968288;28;20666;-70
2022/03/20 10:45:03;;;;;;;31.63;23.23;;;14.00;39.70;;;;;;4969060;28;20566;-70
2022/03/20 10:48:01;;;;;;;36.73;23.37;;;13.90;40.00;;;;;;4968478;28;20539;-71
2022/03/20 10:50:48;;;;;;;35.50;23.20;;;14.10;40.30;;;;;;4971149;28;20455;-71
2022/03/20 10:53:34;;;;;;;38.50;24.33;;;14.30;41.20;;;;;;4968804;28;20446;-71
2022/03/20 10:56:19;;;;;;;35.93;24.53;;;14.50;39.10;;;;;;4975039;28;20470;-72
2022/03/20 10:59:15;;;;;;;30.40;22.10;;;14.70;40.00;;;;;;4972809;28;20503;-72
2022/03/20 11:02:01;;;;;;;34.57;22.93;;;14.90;39.30;;;;;;4969600;28;20973;-71
2022/03/20 11:04:49;;;;;;;32.37;21.37;;;15.00;40.00;;;;;;4965329;28;20852;-71
2022/03/20 11:07:35;;;;;;;36.07;21.73;;;14.90;38.90;;;;;;4971024;28;20553;-71
2022/03/20 11:10:21;;;;;;;33.03;21.37;;;14.80;40.40;;;;;;4978712;28;20475;-71
2022/03/20 11:13:07;;;;;;;30.07;19.63;;;15.00;41.20;;;;;;4970616;28;20575;-72
2022/03/20 11:15:54;;;;;;;20.87;14.00;;;15.10;43.30;;;;;;4971647;28;20458;-71
2022/03/20 11:18:42;;;;;;;17.27;11.70;;;15.20;46.70;;;;;;4973454;28;20969;-71
2022/03/20 11:21:31;;;;;;;15.03;11.83;;;15.30;47.90;;;;;;4972379;28;20438;-71
2022/03/20 11:24:17;;;;;;;20.93;12.77;;;15.40;46.10;;;;;;4972714;28;20501;-72
2022/03/20 11:27:04;;;;;;;23.10;13.90;;;15.50;45.50;;;;;;4979182;28;20488;-71
2022/03/20 11:29:52;;;;;;;25.10;13.20;;;15.20;45.10;;;;;;4969098;28;20557;-71
2022/03/20 11:32:38;;;;;;;21.27;14.67;;;15.30;46.50;;;;;;4973759;28;20465;-71
2022/03/20 11:35:28;;;;;;;24.73;12.80;;;15.00;46.80;;;;;;4973685;28;20435;-71
2022/03/20 11:38:18;;;;;;;18.13;12.73;;;15.10;48.10;;;;;;4972778;28;20434;-71
2022/03/20 11:41:08;;;;;;;18.73;13.67;;;15.10;45.90;;;;;;4979073;28;20887;-71
2022/03/20 11:44:20;;;;;;;19.23;12.43;;;15.10;47.40;;;;;;4971947;28;21026;-71
2022/03/20 11:47:20;;;;;;;15.50;11.20;;;15.00;46.90;;;;;;4979324;28;20760;-71
2022/03/20 11:50:12;;;;;;;16.67;11.67;;;15.00;46.70;;;;;;4983468;28;20576;-71
2022/03/20 11:53:02;;;;;;;25.87;13.53;;;14.80;47.80;;;;;;4969889;28;20434;-71
2022/03/20 11:55:52;;;;;;;22.77;12.27;;;14.80;47.80;;;;;;4977665;28;20416;-71
2022/03/20 11:58:40;;;;;;;19.07;12.60;;;14.80;46.60;;;;;;4970430;28;21006;-71
2022/03/20 12:01:25;;;;;;;21.60;11.93;;;14.80;47.40;;;;;;4975983;28;20431;-71
2022/03/20 12:04:15;;;;;;;19.10;12.10;;;14.70;46.40;;;;;;4976023;28;20570;-71
2022/03/20 12:07:17;;;;;;;21.77;12.07;;;14.50;47.40;;;;;;4977764;28;20417;-71
2022/03/20 12:10:15;;;;;;;16.07;10.37;;;14.60;48.80;;;;;;4979633;28;20925;-71
2022/03/20 12:13:20;;;;;;;14.90;10.30;;;14.60;47.50;;;;;;4972367;28;20505;-71
2022/03/20 12:16:06;;;;;;;16.50;10.57;;;14.60;47.50;;;;;;4971770;28;20406;-71
2022/03/20 12:19:07;;;;;;;18.37;11.10;;;14.60;47.50;;;;;;4973768;28;20425;-71
2022/03/20 12:21:56;;;;;;;19.40;11.40;;;14.70;47.70;;;;;;4969107;28;20456;-71
2022/03/20 12:24:49;;;;;;;17.03;9.97;;;15.00;48.60;;;;;;4974926;28;20488;-71
2022/03/20 12:27:43;;;;;;;18.30;9.40;;;15.30;48.30;;;;;;4980133;28;20430;-71
2022/03/20 12:30:35;;;;;;;15.53;10.23;;;15.50;45.90;;;;;;4973630;28;20428;-71
2022/03/20 12:33:25;;;;;;;15.77;9.87;;;15.60;45.80;;;;;;4976253;28;20396;-71
2022/03/20 12:36:28;;;;;;;17.27;9.37;;;15.70;45.80;;;;;;4980050;28;20464;-71
2022/03/20 12:39:14;;;;;;;13.33;9.70;;;15.80;45.20;;;;;;4976708;28;20420;-71
2022/03/20 12:41:59;;;;;;;14.93;10.20;;;15.70;44.10;;;;;;4972918;28;20458;-71
2022/03/20 12:44:47;;;;;;;14.70;10.00;;;15.60;44.70;;;;;;4975953;28;20495;-71
2022/03/20 12:47:34;;;;;;;15.53;10.00;;;15.50;44.20;;;;;;4973809;28;20404;-71
2022/03/20 12:50:24;;;;;;;13.90;9.80;;;15.40;44.30;;;;;;4976710;28;20520;-71
2022/03/20 12:53:14;;;;;;;18.97;9.63;;;15.50;46.00;;;;;;4970984;28;20419;-71
2022/03/20 12:56:01;;;;;;;21.67;9.53;;;15.80;44.00;;;;;;4980263;28;20426;-71
2022/03/20 12:58:47;;;;;;;14.47;9.53;;;16.20;43.40;;;;;;4980345;28;20957;-71
2022/03/20 13:01:39;;;;;;;17.80;9.60;;;16.60;43.20;;;;;;4970565;28;20458;-71
2022/03/20 13:04:26;;;;;;;17.93;9.80;;;16.90;42.60;;;;;;4975909;28;20453;-71
2022/03/20 13:07:24;;;;;;;14.03;9.03;;;17.30;42.50;;;;;;4973997;28;20502;-71
2022/03/20 13:10:11;;;;;;;14.30;9.70;;;17.60;40.60;;;;;;4974335;28;20457;-71
2022/03/20 13:12:58;;;;;;;15.90;9.07;;;17.80;39.90;;;;;;4972671;28;20423;-71
2022/03/20 13:15:44;;;;;;;17.23;10.57;;;17.80;40.40;;;;;;4969846;28;20500;-71
2022/03/20 13:18:32;;;;;;;16.37;11.00;;;17.80;39.90;;;;;;4975275;28;20415;-72
2022/03/20 13:21:19;;;;;;;19.50;10.77;;;17.80;39.30;;;;;;4973191;28;20582;-71
2022/03/20 13:24:06;;;;;;;13.60;9.77;;;17.90;39.40;;;;;;4975343;28;20447;-71
2022/03/20 13:26:57;;;;;;;14.47;10.40;;;18.20;39.90;;;;;;4978225;28;20427;-71
2022/03/20 13:29:53;;;;;;;17.63;10.50;;;18.30;36.70;;;;;;4965845;28;20419;-72
2022/03/20 13:32:38;;;;;;;17.33;10.17;;;18.40;37.40;;;;;;4972433;28;20435;-72
2022/03/20 13:35:25;;;;;;;15.17;8.80;;;18.70;38.20;;;;;;4975529;28;20494;-71
2022/03/20 13:38:12;;;;;;;13.50;8.60;;;19.00;38.50;;;;;;4970480;28;20990;-71
2022/03/20 13:41:06;;;;;;;16.03;9.63;;;19.10;36.90;;;;;;4970320;28;20567;-71
2022/03/20 13:43:57;;;;;;;15.83;9.60;;;19.10;34.30;;;;;;4962893;28;20459;-71
2022/03/20 13:46:44;;;;;;;13.87;8.43;;;19.30;34.90;;;;;;4974590;28;20564;-71
2022/03/20 13:49:31;;;;;;;13.53;8.90;;;19.50;33.40;;;;;;4968770;28;20427;-71
2022/03/20 13:52:24;;;;;;;13.67;9.50;;;19.80;33.70;;;;;;4973951;28;20843;-71
2022/03/20 13:55:14;;;;;;;14.80;9.10;;;19.50;31.20;;;;;;4974706;28;20453;-71
2022/03/20 13:58:00;;;;;;;15.93;8.60;;;19.50;31.60;;;;;;5037103;23;20499;-71
2022/03/20 14:00:48;;;;;;;14.33;8.30;;;19.60;32.10;;;;;;5030546;28;20460;-71
2022/03/20 14:03:34;;;;;;;13.50;8.00;;;19.80;32.30;;;;;;5032762;28;20945;-71
2022/03/20 14:06:21;;;;;;;20.53;9.17;;;19.90;32.40;;;;;;5044064;28;21009;-72
2022/03/20 14:09:07;;;;;;;15.13;8.27;;;19.90;30.20;;;;;;5019745;28;20962;-72
2022/03/20 14:11:54;;;;;;;15.13;8.03;;;19.80;30.80;;;;;;5016341;28;20795;-72
2022/03/20 14:14:44;;;;;;;11.70;8.07;;;19.90;30.60;;;;;;5015419;28;20409;-71
2022/03/20 14:17:41;;;;;;;10.53;7.27;;;20.10;31.00;;;;;;5018460;28;20469;-71
2022/03/20 14:20:29;;;;;;;10.47;7.43;;;20.20;31.40;;;;;;5003501;28;20476;-71
2022/03/20 14:23:15;;;;;;;15.73;9.00;;;20.10;30.50;;;;;;5013352;28;20429;-71
2022/03/20 14:26:02;;;;;;;12.90;8.50;;;20.20;32.00;;;;;;5009909;28;20883;-71
2022/03/20 14:29:01;;;;;;;15.33;8.17;;;20.10;30.00;;;;;;5014254;28;20429;-71
2022/03/20 14:41:22;;;;;;;14.70;8.57;;;20.20;30.80;;;;;;5009921;28;20827;-71
2022/03/20 14:44:12;;;;;;;14.13;9.33;;;20.10;29.40;;;;;;5014346;28;20428;-71
2022/03/20 14:47:04;;;;;;;15.00;9.10;;;19.90;30.10;;;;;;5012593;28;20449;-72
2022/03/20 14:49:51;;;;;;;14.47;9.00;;;20.00;29.00;;;;;;5008596;28;20449;-71
2022/03/20 14:52:36;;;;;;;15.57;8.90;;;19.90;29.50;;;;;;5013993;28;20421;-71
2022/03/20 14:55:22;;;;;;;21.77;8.43;;;20.10;30.50;;;;;;5010933;28;20425;-72
2022/03/20 14:58:08;;;;;;;13.33;7.23;;;20.20;30.20;;;;;;5009489;28;20524;-71
2022/03/20 15:00:56;;;;;;;13.30;8.07;;;20.30;30.00;;;;;;5009567;28;20509;-71